createdAt,value
2023-01-18T00:05:07.199Z,91.6
2023-01-18T00:10:59.510Z,91.7
2023-01-18T00:16:59.366Z,92.2
2023-01-18T00:22:57.245Z,91.3
2023-01-18T00:28:47.137Z,91.4
2023-01-18T00:34:38.615Z,91.6
2023-01-18T00:40:53.889Z,92.1
2023-01-18T00:46:49.830Z,92.6
2023-01-18T00:52:43.754Z,91.7
2023-01-18T00:58:37.222Z,93
2023-01-18T01:04:29.650Z,92.3
2023-01-18T01:10:21.815Z,93.4
2023-01-18T01:16:27.097Z,92.5
2023-01-18T01:22:20.894Z,91.9
2023-01-18T01:28:13.201Z,93.3
2023-01-18T01:34:04.636Z,93.7
2023-01-18T01:39:53.839Z,95
2023-01-18T01:45:57.598Z,96.3
2023-01-18T01:51:54.368Z,93.8
2023-01-18T01:57:47.151Z,94.6
2023-01-18T02:03:39.949Z,98.2
2023-01-18T02:09:32.471Z,96.2
2023-01-18T02:15:31.158Z,96.2
2023-01-18T02:21:30.129Z,95.4
2023-01-18T02:27:23.676Z,95.4
2023-01-18T02:39:21.587Z,97.3
2023-01-18T02:45:20.930Z,96.1
2023-01-18T02:51:13.046Z,95.6
2023-01-18T02:57:04.548Z,95.8
2023-01-18T03:02:57.703Z,94.8
2023-01-18T03:08:51.779Z,95.4
2023-01-18T03:14:45.225Z,94.6
2023-01-18T03:20:36.431Z,94.2
2023-01-18T03:26:30.862Z,94.6
2023-01-18T03:32:23.621Z,96.1
2023-01-18T03:38:16.261Z,96.9
2023-01-18T03:44:11.976Z,97.1
2023-01-18T03:50:02.831Z,96
2023-01-18T03:55:59.718Z,96
2023-01-18T04:01:52.055Z,96.1
2023-01-18T04:07:50.131Z,96.6
2023-01-18T04:13:57.754Z,96.6
2023-01-18T04:19:57.497Z,95.6
2023-01-18T04:25:50.856Z,96.2
2023-01-18T04:31:47.232Z,97.7
2023-01-18T04:37:40.706Z,96.1
2023-01-18T04:43:34.934Z,96.5
2023-01-18T04:49:26.840Z,98.2
2023-01-18T04:55:16.736Z,100
2023-01-18T05:01:05.309Z,100
2023-01-18T05:06:56.714Z,98.8
2023-01-18T05:12:46.852Z,97.4
2023-01-18T05:18:37.198Z,97.7
2023-01-18T05:24:32.012Z,97.4
2023-01-18T05:30:21.861Z,98.1
2023-01-18T05:36:12.503Z,98.2
2023-01-18T05:42:03.148Z,97.4
2023-01-18T05:47:53.397Z,96.1
2023-01-18T05:53:44.106Z,97.3
2023-01-18T05:59:34.305Z,98.2
2023-01-18T06:05:25.084Z,98.2
2023-01-18T06:11:15.741Z,96.9
2023-01-18T06:17:06.227Z,96.5
2023-01-18T06:22:56.879Z,97.3
2023-01-18T06:28:50.865Z,96.7
2023-01-18T06:34:41.211Z,98
2023-01-18T06:40:31.956Z,99.3
2023-01-18T06:46:23.994Z,97.1
2023-01-18T06:52:14.159Z,98.3
2023-01-18T06:58:05.262Z,98.1
2023-01-18T07:03:56.448Z,97.3
2023-01-18T07:09:47.846Z,97.5
2023-01-18T07:15:38.253Z,97
2023-01-18T07:21:29.361Z,96
2023-01-18T07:27:20.376Z,96.3
2023-01-18T07:33:11.649Z,96.5
2023-01-18T07:39:01.946Z,96
2023-01-18T07:44:53.129Z,96.9
2023-01-18T07:50:44.215Z,97.3
2023-01-18T07:56:35.318Z,97.3
2023-01-18T08:02:25.816Z,96.6
2023-01-18T08:08:16.976Z,96.7
2023-01-18T08:14:07.149Z,98.4
2023-01-18T08:19:58.192Z,97.4
2023-01-18T08:25:50.293Z,97
2023-01-18T08:31:41.629Z,96
2023-01-18T08:37:31.746Z,96.5
2023-01-18T08:43:23.164Z,96.9
2023-01-18T08:49:13.924Z,98.1
2023-01-18T08:55:05.130Z,98
2023-01-18T09:00:56.161Z,97.2
2023-01-18T09:06:46.176Z,97.8
2023-01-18T09:12:39.087Z,98.5
2023-01-18T09:18:30.801Z,99.2
2023-01-18T09:24:28.484Z,100
2023-01-18T09:30:18.941Z,98.7
2023-01-18T09:36:12.852Z,99.9
2023-01-18T09:42:04.365Z,100
2023-01-18T09:47:55.090Z,100
2023-01-18T09:53:45.872Z,100
2023-01-18T09:59:37.542Z,100
2023-01-18T10:05:28.014Z,98.3
2023-01-18T10:11:18.857Z,100
2023-01-18T10:17:11.907Z,100
2023-01-18T10:23:02.661Z,100
2023-01-18T10:28:57.610Z,100
2023-01-18T10:34:47.772Z,100
2023-01-18T10:40:40.258Z,100
2023-01-18T10:46:31.156Z,100
2023-01-18T10:52:22.170Z,100
2023-01-18T10:58:12.899Z,99.3
2023-01-18T11:04:04.654Z,95.4
2023-01-18T11:09:55.568Z,94.4
2023-01-18T11:15:43.887Z,97.8
2023-01-18T11:21:36.267Z,98.6
2023-01-18T11:27:28.312Z,98.8
2023-01-18T11:33:18.891Z,98.4
2023-01-18T11:39:10.048Z,98.6
2023-01-18T11:44:59.000Z,98.3
2023-01-18T11:50:49.771Z,97.7
2023-01-18T11:56:39.598Z,97.2
2023-01-18T12:02:29.451Z,95.9
2023-01-18T12:08:20.099Z,95.3
2023-01-18T12:14:09.869Z,94.7
2023-01-18T12:20:00.658Z,93.4
2023-01-18T12:26:10.844Z,93.4
2023-01-18T12:32:06.216Z,92.2
2023-01-18T12:37:57.568Z,91
2023-01-18T12:43:49.919Z,91.6
2023-01-18T12:49:42.225Z,88.2
2023-01-18T12:55:32.453Z,79.5
2023-01-18T13:01:22.017Z,74.9
2023-01-18T13:07:13.950Z,75.1
2023-01-18T13:13:05.716Z,72.3
2023-01-18T13:18:56.794Z,71.6
2023-01-18T13:24:46.714Z,71.7
2023-01-18T13:30:37.526Z,72.9
2023-01-18T13:36:28.779Z,72.3
2023-01-18T13:42:21.887Z,73
2023-01-18T13:48:15.382Z,72.4
2023-01-18T13:54:09.298Z,70.7
2023-01-18T14:00:02.329Z,69.9
2023-01-18T14:05:52.109Z,70.5
2023-01-18T14:11:44.016Z,71.4
2023-01-18T14:17:34.256Z,70.4
2023-01-18T14:23:44.525Z,70.1
2023-01-18T14:29:34.433Z,71.1
2023-01-18T14:35:40.593Z,70.7
2023-01-18T14:41:37.511Z,71.1
2023-01-18T14:53:43.410Z,71.4
2023-01-18T14:59:49.150Z,71.9
2023-01-18T15:05:46.433Z,71.6
2023-01-18T15:11:37.451Z,71.9
2023-01-18T15:17:29.172Z,72.3
2023-01-18T15:23:23.075Z,72.7
2023-01-18T15:29:16.086Z,72.1
2023-01-18T15:35:07.439Z,74
2023-01-18T15:40:59.365Z,74.9
2023-01-18T15:46:48.630Z,76.1
2023-01-18T15:52:39.507Z,76.2
2023-01-18T15:58:32.839Z,76.9
2023-01-18T16:04:23.408Z,77.6
2023-01-18T16:10:14.519Z,78.3
2023-01-18T16:16:04.677Z,78
2023-01-18T16:21:54.664Z,78.1
2023-01-18T16:27:47.190Z,78
2023-01-18T16:33:38.075Z,78.3
2023-01-18T16:39:27.697Z,78.8
2023-01-18T16:45:17.713Z,79.7
2023-01-18T16:51:10.877Z,80.6
2023-01-18T16:57:00.435Z,80.7
2023-01-18T17:02:53.495Z,80.3
2023-01-18T17:08:51.155Z,82.3
2023-01-18T17:14:43.950Z,82.4
2023-01-18T17:20:35.726Z,84.6
2023-01-18T17:26:27.756Z,85.2
2023-01-18T17:32:17.820Z,84.9
2023-01-18T17:38:22.925Z,84.6
2023-01-18T17:44:26.907Z,85.1
2023-01-18T17:50:24.590Z,84.9
2023-01-18T17:56:16.757Z,86.7
2023-01-18T18:02:08.590Z,86.4
2023-01-18T18:08:03.001Z,85.8
2023-01-18T18:14:00.473Z,86.4
2023-01-18T18:19:57.304Z,86.9
2023-01-18T18:25:48.089Z,87.5
2023-01-18T18:31:50.478Z,88.4
2023-01-18T18:37:44.450Z,87.4
2023-01-18T18:43:35.592Z,88.2
2023-01-18T18:49:25.196Z,87.7
2023-01-18T18:55:23.503Z,88.5
2023-01-18T19:01:16.552Z,89.1
2023-01-18T19:07:07.688Z,89.1
2023-01-18T19:12:57.171Z,88.5
2023-01-18T19:18:50.323Z,88.2
2023-01-18T19:24:43.239Z,88.5
2023-01-18T19:30:35.796Z,88.7
2023-01-18T19:36:25.757Z,88.9
2023-01-18T19:42:16.281Z,87.7
2023-01-18T19:48:08.020Z,87.7
2023-01-18T19:53:58.620Z,88.3
2023-01-18T19:59:48.486Z,88.9
2023-01-18T20:05:39.376Z,88.7
2023-01-18T20:11:29.055Z,89
2023-01-18T20:17:22.265Z,88.6
2023-01-18T20:23:22.783Z,88.9
2023-01-18T20:29:13.467Z,88.6
2023-01-18T20:35:16.270Z,89.3
2023-01-18T20:41:30.460Z,88.9
2023-01-18T20:47:25.246Z,88.8
2023-01-18T20:53:18.796Z,88.7
2023-01-18T20:59:07.695Z,90.2
2023-01-18T21:04:57.761Z,91.3
2023-01-18T21:10:46.316Z,91.5
2023-01-18T21:16:37.194Z,91.4
2023-01-18T21:22:28.161Z,90.5
2023-01-18T21:28:18.515Z,90.3
2023-01-18T21:34:12.645Z,89.7
2023-01-18T21:40:02.304Z,90.2
2023-01-18T21:45:52.190Z,89.5
2023-01-18T21:51:42.529Z,90.6
2023-01-18T21:57:31.085Z,90.4
2023-01-18T22:03:19.572Z,92.6
2023-01-18T22:09:08.617Z,92.6
2023-01-18T22:14:59.810Z,92.3
2023-01-18T22:20:49.729Z,92.8
2023-01-18T22:26:39.979Z,94.3
2023-01-18T22:32:28.190Z,94.2
2023-01-18T22:38:17.622Z,93.5
2023-01-18T22:44:06.737Z,94.3
2023-01-18T22:49:55.549Z,95.4
2023-01-18T22:55:45.058Z,96.3
2023-01-18T23:01:34.504Z,96
2023-01-18T23:07:23.689Z,96.7
2023-01-18T23:13:13.642Z,96.4
2023-01-18T23:19:02.775Z,95.7
2023-01-18T23:24:51.595Z,95.8
2023-01-18T23:30:54.331Z,96.9
2023-01-18T23:36:58.297Z,96.4
2023-01-18T23:49:16.009Z,96.7
2023-01-18T23:55:13.890Z,95.9
